sensor_id;sensor_type;location;lat;lon;timestamp;pressure;altitude;pressure_sealevel;temperature;humidity
19761;BME280;10039;42.632;23.408;2023-07-13T00:01:45;95220.53;;;24.16;54.55
19761;BME280;10039;42.632;23.408;2023-07-13T00:04:16;95223.25;;;24.05;54.63
19761;BME280;10039;42.632;23.408;2023-07-13T00:06:42;95206.03;;;23.83;55.00
19761;BME280;10039;42.632;23.408;2023-07-13T00:09:10;95193.81;;;23.67;54.60
19761;BME280;10039;42.632;23.408;2023-07-13T00:11:37;95222.66;;;23.85;55.11
19761;BME280;10039;42.632;23.408;2023-07-13T00:14:03;95191.81;;;23.62;55.04
19761;BME280;10039;42.632;23.408;2023-07-13T00:16:29;95213.38;;;23.66;55.47
19761;BME280;10039;42.632;23.408;2023-07-13T00:18:54;95226.97;;;23.60;55.77
19761;BME280;10039;42.632;23.408;2023-07-13T00:21:19;95220.69;;;23.43;56.82
19761;BME280;10039;42.632;23.408;2023-07-13T00:23:45;95187.22;;;23.37;56.24
19761;BME280;10039;42.632;23.408;2023-07-13T00:26:11;95205.50;;;23.73;56.13
19761;BME280;10039;42.632;23.408;2023-07-13T00:28:38;95201.94;;;23.62;56.81
19761;BME280;10039;42.632;23.408;2023-07-13T00:31:04;95204.38;;;23.49;57.89
19761;BME280;10039;42.632;23.408;2023-07-13T00:33:31;95215.09;;;23.63;56.81
19761;BME280;10039;42.632;23.408;2023-07-13T00:35:56;95217.75;;;23.47;58.25
19761;BME280;10039;42.632;23.408;2023-07-13T00:38:23;95216.00;;;23.49;57.98
19761;BME280;10039;42.632;23.408;2023-07-13T00:40:49;95209.16;;;23.65;57.92
19761;BME280;10039;42.632;23.408;2023-07-13T00:43:22;95200.72;;;23.63;58.63
19761;BME280;10039;42.632;23.408;2023-07-13T00:48:18;95212.63;;;23.65;58.96
19761;BME280;10039;42.632;23.408;2023-07-13T00:50:47;95218.56;;;23.64;58.94
19761;BME280;10039;42.632;23.408;2023-07-13T00:53:13;95211.41;;;23.72;59.21
19761;BME280;10039;42.632;23.408;2023-07-13T00:55:39;95214.69;;;23.81;58.54
19761;BME280;10039;42.632;23.408;2023-07-13T00:58:05;95207.03;;;23.90;58.40
19761;BME280;10039;42.632;23.408;2023-07-13T01:00:34;95181.19;;;23.75;58.45
19761;BME280;10039;42.632;23.408;2023-07-13T01:03:00;95196.13;;;23.85;58.79
19761;BME280;10039;42.632;23.408;2023-07-13T01:05:31;95196.13;;;23.80;58.29
19761;BME280;10039;42.632;23.408;2023-07-13T01:07:57;95198.44;;;23.50;58.08
19761;BME280;10039;42.632;23.408;2023-07-13T01:10:25;95188.91;;;23.29;58.04
19761;BME280;10039;42.632;23.408;2023-07-13T01:12:51;95192.88;;;23.28;57.30
19761;BME280;10039;42.632;23.408;2023-07-13T01:15:53;95196.16;;;23.43;57.35
19761;BME280;10039;42.632;23.408;2023-07-13T01:18:25;95188.75;;;23.44;57.58
19761;BME280;10039;42.632;23.408;2023-07-13T01:21:02;95181.88;;;23.54;57.44
19761;BME280;10039;42.632;23.408;2023-07-13T01:23:28;95197.97;;;23.57;56.99
19761;BME280;10039;42.632;23.408;2023-07-13T01:25:54;95190.56;;;23.58;56.84
19761;BME280;10039;42.632;23.408;2023-07-13T01:28:21;95187.75;;;23.41;56.62
19761;BME280;10039;42.632;23.408;2023-07-13T01:30:46;95193.13;;;23.30;57.56
19761;BME280;10039;42.632;23.408;2023-07-13T01:33:17;95193.19;;;23.41;57.53
19761;BME280;10039;42.632;23.408;2023-07-13T01:35:47;95198.88;;;23.38;57.83
19761;BME280;10039;42.632;23.408;2023-07-13T01:38:17;95200.81;;;23.32;57.92
19761;BME280;10039;42.632;23.408;2023-07-13T01:40:43;95185.72;;;23.00;59.43
19761;BME280;10039;42.632;23.408;2023-07-13T01:43:09;95208.28;;;23.00;59.58
19761;BME280;10039;42.632;23.408;2023-07-13T01:45:35;95203.34;;;23.04;59.40
19761;BME280;10039;42.632;23.408;2023-07-13T01:48:00;95188.72;;;23.02;58.67
19761;BME280;10039;42.632;23.408;2023-07-13T01:50:26;95199.94;;;23.09;59.31
19761;BME280;10039;42.632;23.408;2023-07-13T01:52:52;95190.59;;;23.21;58.36
19761;BME280;10039;42.632;23.408;2023-07-13T01:55:18;95184.25;;;23.35;58.47
19761;BME280;10039;42.632;23.408;2023-07-13T01:57:44;95190.47;;;23.41;57.79
19761;BME280;10039;42.632;23.408;2023-07-13T02:00:10;95183.81;;;23.53;57.52
19761;BME280;10039;42.632;23.408;2023-07-13T02:02:36;95189.28;;;23.53;57.13
19761;BME280;10039;42.632;23.408;2023-07-13T02:05:01;95190.75;;;23.49;57.08
19761;BME280;10039;42.632;23.408;2023-07-13T02:07:27;95199.66;;;23.49;57.82
19761;BME280;10039;42.632;23.408;2023-07-13T02:09:52;95208.00;;;23.29;58.08
19761;BME280;10039;42.632;23.408;2023-07-13T02:12:19;95201.13;;;23.39;58.05
19761;BME280;10039;42.632;23.408;2023-07-13T02:14:44;95187.31;;;23.12;58.49
19761;BME280;10039;42.632;23.408;2023-07-13T02:17:10;95208.00;;;23.29;58.99
19761;BME280;10039;42.632;23.408;2023-07-13T02:19:35;95162.00;;;23.06;58.62
19761;BME280;10039;42.632;23.408;2023-07-13T02:22:01;95205.50;;;23.26;58.65
19761;BME280;10039;42.632;23.408;2023-07-13T02:24:27;95190.63;;;23.27;58.77
19761;BME280;10039;42.632;23.408;2023-07-13T02:26:53;95195.53;;;23.17;57.99
19761;BME280;10039;42.632;23.408;2023-07-13T02:29:18;95198.56;;;23.25;57.89
19761;BME280;10039;42.632;23.408;2023-07-13T02:31:44;95209.94;;;23.23;58.06
19761;BME280;10039;42.632;23.408;2023-07-13T02:34:09;95171.97;;;23.09;57.78
19761;BME280;10039;42.632;23.408;2023-07-13T02:36:35;95215.22;;;23.38;57.78
19761;BME280;10039;42.632;23.408;2023-07-13T02:39:02;95191.13;;;23.31;57.77
19761;BME280;10039;42.632;23.408;2023-07-13T02:41:28;95195.59;;;23.28;57.11
19761;BME280;10039;42.632;23.408;2023-07-13T02:43:53;95207.50;;;23.31;57.40
19761;BME280;10039;42.632;23.408;2023-07-13T02:46:19;95203.31;;;23.35;57.47
19761;BME280;10039;42.632;23.408;2023-07-13T02:48:45;95199.81;;;23.29;57.02
19761;BME280;10039;42.632;23.408;2023-07-13T02:51:11;95214.44;;;23.32;57.24
19761;BME280;10039;42.632;23.408;2023-07-13T02:53:37;95201.72;;;23.18;57.55
19761;BME280;10039;42.632;23.408;2023-07-13T02:56:03;95213.38;;;23.18;57.10
19761;BME280;10039;42.632;23.408;2023-07-13T02:58:30;95183.25;;;23.02;57.83
19761;BME280;10039;42.632;23.408;2023-07-13T03:00:56;95218.19;;;23.03;57.98
19761;BME280;10039;42.632;23.408;2023-07-13T03:03:23;95201.84;;;23.03;57.54
19761;BME280;10039;42.632;23.408;2023-07-13T03:05:58;95205.41;;;23.09;57.44
19761;BME280;10039;42.632;23.408;2023-07-13T03:08:25;95217.53;;;23.08;58.02
19761;BME280;10039;42.632;23.408;2023-07-13T03:10:59;95221.81;;;22.95;59.19
19761;BME280;10039;42.632;23.408;2023-07-13T03:13:24;95223.56;;;22.92;59.01
19761;BME280;10039;42.632;23.408;2023-07-13T03:15:50;95225.88;;;23.05;59.29
19761;BME280;10039;42.632;23.408;2023-07-13T03:18:15;95209.75;;;23.01;59.10
19761;BME280;10039;42.632;23.408;2023-07-13T03:20:40;95232.38;;;23.07;59.46
19761;BME280;10039;42.632;23.408;2023-07-13T03:23:06;95231.56;;;23.01;59.43
19761;BME280;10039;42.632;23.408;2023-07-13T03:25:31;95204.75;;;22.94;59.00
19761;BME280;10039;42.632;23.408;2023-07-13T03:27:57;95211.59;;;22.84;59.32
19761;BME280;10039;42.632;23.408;2023-07-13T03:30:22;95206.84;;;22.49;60.49
19761;BME280;10039;42.632;23.408;2023-07-13T03:32:48;95224.53;;;22.59;60.84
19761;BME280;10039;42.632;23.408;2023-07-13T03:35:13;95221.09;;;22.64;59.96
19761;BME280;10039;42.632;23.408;2023-07-13T03:37:39;95230.88;;;22.50;60.28
19761;BME280;10039;42.632;23.408;2023-07-13T03:40:08;95233.94;;;22.63;60.77
19761;BME280;10039;42.632;23.408;2023-07-13T03:42:34;95235.25;;;22.67;60.71
19761;BME280;10039;42.632;23.408;2023-07-13T03:45:00;95231.13;;;22.77;60.72
19761;BME280;10039;42.632;23.408;2023-07-13T03:47:25;95228.84;;;22.70;60.72
19761;BME280;10039;42.632;23.408;2023-07-13T03:49:51;95221.63;;;22.67;60.54
19761;BME280;10039;42.632;23.408;2023-07-13T03:52:16;95230.88;;;22.75;60.55
19761;BME280;10039;42.632;23.408;2023-07-13T03:54:41;95226.38;;;22.72;59.98
19761;BME280;10039;42.632;23.408;2023-07-13T03:57:08;95225.91;;;22.79;60.19
19761;BME280;10039;42.632;23.408;2023-07-13T03:59:33;95223.94;;;22.74;60.84
19761;BME280;10039;42.632;23.408;2023-07-13T04:02:00;95198.97;;;22.51;60.47
19761;BME280;10039;42.632;23.408;2023-07-13T04:04:25;95225.84;;;22.68;61.09
19761;BME280;10039;42.632;23.408;2023-07-13T04:06:51;95231.44;;;22.60;61.34
19761;BME280;10039;42.632;23.408;2023-07-13T04:09:18;95229.16;;;22.53;61.10
19761;BME280;10039;42.632;23.408;2023-07-13T04:11:43;95226.97;;;22.57;61.20
19761;BME280;10039;42.632;23.408;2023-07-13T04:14:09;95228.84;;;22.70;61.00
19761;BME280;10039;42.632;23.408;2023-07-13T04:16:35;95221.19;;;22.74;60.83
19761;BME280;10039;42.632;23.408;2023-07-13T04:19:00;95225.97;;;22.85;60.19
19761;BME280;10039;42.632;23.408;2023-07-13T04:21:30;95231.38;;;22.79;60.82
19761;BME280;10039;42.632;23.408;2023-07-13T04:23:56;95225.75;;;22.88;60.41
19761;BME280;10039;42.632;23.408;2023-07-13T04:26:22;95228.28;;;22.92;60.60
19761;BME280;10039;42.632;23.408;2023-07-13T04:28:50;95222.56;;;22.90;59.90
19761;BME280;10039;42.632;23.408;2023-07-13T04:31:15;95233.03;;;23.02;59.82
19761;BME280;10039;42.632;23.408;2023-07-13T04:33:41;95237.16;;;23.18;59.71
19761;BME280;10039;42.632;23.408;2023-07-13T04:36:08;95243.06;;;23.16;59.68
19761;BME280;10039;42.632;23.408;2023-07-13T04:38:34;95240.97;;;23.37;59.69
19761;BME280;10039;42.632;23.408;2023-07-13T04:41:03;95244.47;;;23.37;59.91
19761;BME280;10039;42.632;23.408;2023-07-13T04:43:30;95251.19;;;23.47;59.73
19761;BME280;10039;42.632;23.408;2023-07-13T04:45:56;95212.56;;;23.12;59.87
19761;BME280;10039;42.632;23.408;2023-07-13T04:48:22;95248.00;;;23.49;60.50
19761;BME280;10039;42.632;23.408;2023-07-13T04:50:54;95250.53;;;23.21;62.09
19761;BME280;10039;42.632;23.408;2023-07-13T04:53:20;95264.00;;;23.36;60.98
19761;BME280;10039;42.632;23.408;2023-07-13T04:55:46;95247.75;;;23.52;60.77
19761;BME280;10039;42.632;23.408;2023-07-13T04:58:12;95220.50;;;23.52;60.15
19761;BME280;10039;42.632;23.408;2023-07-13T05:00:39;95230.75;;;23.74;59.36
19761;BME280;10039;42.632;23.408;2023-07-13T05:03:05;95237.53;;;23.89;58.60
19761;BME280;10039;42.632;23.408;2023-07-13T05:05:31;95263.97;;;24.25;58.57
19761;BME280;10039;42.632;23.408;2023-07-13T05:07:56;95256.78;;;24.33;58.29
19761;BME280;10039;42.632;23.408;2023-07-13T05:10:22;95266.22;;;24.43;58.22
19761;BME280;10039;42.632;23.408;2023-07-13T05:12:47;95268.91;;;24.26;58.00
19761;BME280;10039;42.632;23.408;2023-07-13T05:15:12;95271.94;;;24.45;58.35
19761;BME280;10039;42.632;23.408;2023-07-13T05:17:38;95249.31;;;24.22;57.63
19761;BME280;10039;42.632;23.408;2023-07-13T05:20:08;95271.66;;;24.26;58.77
19761;BME280;10039;42.632;23.408;2023-07-13T05:22:34;95276.16;;;24.40;58.98
19761;BME280;10039;42.632;23.408;2023-07-13T05:25:01;95279.44;;;24.55;58.72
19761;BME280;10039;42.632;23.408;2023-07-13T05:27:27;95274.75;;;24.72;58.20
19761;BME280;10039;42.632;23.408;2023-07-13T05:29:52;95277.00;;;24.90;58.25
19761;BME280;10039;42.632;23.408;2023-07-13T05:32:18;95274.03;;;25.04;57.20
19761;BME280;10039;42.632;23.408;2023-07-13T05:34:44;95272.06;;;25.21;56.56
19761;BME280;10039;42.632;23.408;2023-07-13T05:37:09;95274.03;;;25.48;56.12
19761;BME280;10039;42.632;23.408;2023-07-13T05:39:35;95262.09;;;25.51;54.65
19761;BME280;10039;42.632;23.408;2023-07-13T05:42:01;95240.44;;;25.59;54.95
19761;BME280;10039;42.632;23.408;2023-07-13T05:44:27;95277.88;;;26.02;54.81
19761;BME280;10039;42.632;23.408;2023-07-13T05:46:52;95248.50;;;26.08;54.22
19761;BME280;10039;42.632;23.408;2023-07-13T05:49:18;95258.94;;;26.15;53.86
19761;BME280;10039;42.632;23.408;2023-07-13T05:51:43;95264.03;;;26.46;53.67
19761;BME280;10039;42.632;23.408;2023-07-13T05:54:09;95265.41;;;26.63;53.57
19761;BME280;10039;42.632;23.408;2023-07-13T05:56:34;95246.66;;;26.73;53.10
19761;BME280;10039;42.632;23.408;2023-07-13T05:59:00;95258.91;;;27.07;52.07
19761;BME280;10039;42.632;23.408;2023-07-13T06:01:25;95266.69;;;27.27;52.22
19761;BME280;10039;42.632;23.408;2023-07-13T06:03:51;95286.59;;;27.33;51.29
19761;BME280;10039;42.632;23.408;2023-07-13T06:06:16;95260.63;;;27.39;51.29
19761;BME280;10039;42.632;23.408;2023-07-13T06:08:42;95267.34;;;27.67;51.05
19761;BME280;10039;42.632;23.408;2023-07-13T06:11:13;95259.59;;;27.90;50.05
19761;BME280;10039;42.632;23.408;2023-07-13T06:13:39;95248.44;;;28.06;49.64
19761;BME280;10039;42.632;23.408;2023-07-13T06:16:05;95246.69;;;28.27;49.16
19761;BME280;10039;42.632;23.408;2023-07-13T06:18:32;95253.66;;;28.47;48.97
19761;BME280;10039;42.632;23.408;2023-07-13T06:20:58;95262.28;;;28.56;48.03
19761;BME280;10039;42.632;23.408;2023-07-13T06:23:24;95256.28;;;28.39;47.75
19761;BME280;10039;42.632;23.408;2023-07-13T06:25:50;95270.16;;;28.47;48.04
19761;BME280;10039;42.632;23.408;2023-07-13T06:28:16;95264.50;;;28.76;47.57
19761;BME280;10039;42.632;23.408;2023-07-13T06:30:41;95263.38;;;29.03;47.62
19761;BME280;10039;42.632;23.408;2023-07-13T06:33:06;95257.78;;;29.08;46.99
19761;BME280;10039;42.632;23.408;2023-07-13T06:35:32;95241.91;;;28.83;48.67
19761;BME280;10039;42.632;23.408;2023-07-13T06:37:57;95266.28;;;28.55;48.28
19761;BME280;10039;42.632;23.408;2023-07-13T06:40:23;95255.44;;;28.81;48.83
19761;BME280;10039;42.632;23.408;2023-07-13T06:42:48;95254.88;;;28.51;47.37
19761;BME280;10039;42.632;23.408;2023-07-13T06:45:14;95254.41;;;28.65;48.41
19761;BME280;10039;42.632;23.408;2023-07-13T06:47:39;95257.44;;;28.62;48.62
19761;BME280;10039;42.632;23.408;2023-07-13T06:50:05;95229.53;;;28.58;48.91
19761;BME280;10039;42.632;23.408;2023-07-13T06:52:30;95262.69;;;28.97;49.84
19761;BME280;10039;42.632;23.408;2023-07-13T06:54:56;95249.28;;;29.06;49.41
19761;BME280;10039;42.632;23.408;2023-07-13T06:57:21;95246.59;;;29.32;49.43
19761;BME280;10039;42.632;23.408;2023-07-13T06:59:47;95257.56;;;29.51;48.12
19761;BME280;10039;42.632;23.408;2023-07-13T07:02:13;95242.91;;;29.30;47.35
19761;BME280;10039;42.632;23.408;2023-07-13T07:04:38;95221.56;;;29.49;45.71
19761;BME280;10039;42.632;23.408;2023-07-13T07:07:04;95259.31;;;29.92;45.29
19761;BME280;10039;42.632;23.408;2023-07-13T07:09:29;95255.63;;;30.03;45.26
19761;BME280;10039;42.632;23.408;2023-07-13T07:11:56;95254.50;;;30.32;46.28
19761;BME280;10039;42.632;23.408;2023-07-13T07:14:22;95257.06;;;30.56;45.91
19761;BME280;10039;42.632;23.408;2023-07-13T07:16:47;95261.38;;;30.64;44.95
19761;BME280;10039;42.632;23.408;2023-07-13T07:19:13;95249.09;;;30.52;44.49
19761;BME280;10039;42.632;23.408;2023-07-13T07:21:38;95252.03;;;30.67;45.13
19761;BME280;10039;42.632;23.408;2023-07-13T07:24:04;95253.25;;;30.79;44.45
19761;BME280;10039;42.632;23.408;2023-07-13T07:26:31;95247.69;;;30.92;43.93
19761;BME280;10039;42.632;23.408;2023-07-13T07:28:56;95260.38;;;31.28;43.73
19761;BME280;10039;42.632;23.408;2023-07-13T07:31:21;95259.91;;;31.17;43.35
19761;BME280;10039;42.632;23.408;2023-07-13T07:33:47;95254.50;;;31.52;43.23
19761;BME280;10039;42.632;23.408;2023-07-13T07:36:15;95255.66;;;31.57;42.60
19761;BME280;10039;42.632;23.408;2023-07-13T07:38:41;95252.88;;;31.57;43.07
19761;BME280;10039;42.632;23.408;2023-07-13T07:41:07;95248.06;;;31.78;42.61
19761;BME280;10039;42.632;23.408;2023-07-13T07:43:32;95242.06;;;32.15;42.71
19761;BME280;10039;42.632;23.408;2023-07-13T07:45:58;95243.16;;;32.12;41.70
19761;BME280;10039;42.632;23.408;2023-07-13T07:48:24;95242.25;;;31.61;42.88
19761;BME280;10039;42.632;23.408;2023-07-13T07:50:49;95228.66;;;31.63;42.99
19761;BME280;10039;42.632;23.408;2023-07-13T07:53:15;95229.91;;;31.34;42.67
19761;BME280;10039;42.632;23.408;2023-07-13T07:55:40;95230.41;;;31.53;42.81
19761;BME280;10039;42.632;23.408;2023-07-13T07:58:06;95231.88;;;32.10;42.21
19761;BME280;10039;42.632;23.408;2023-07-13T08:00:32;95227.66;;;32.51;42.09
19761;BME280;10039;42.632;23.408;2023-07-13T08:02:58;95227.56;;;32.79;41.46
19761;BME280;10039;42.632;23.408;2023-07-13T08:05:24;95230.72;;;32.91;40.78
19761;BME280;10039;42.632;23.408;2023-07-13T08:07:49;95215.59;;;32.99;40.86
19761;BME280;10039;42.632;23.408;2023-07-13T08:10:15;95199.53;;;32.75;40.92
19761;BME280;10039;42.632;23.408;2023-07-13T08:12:41;95208.59;;;32.98;41.26
19761;BME280;10039;42.632;23.408;2023-07-13T08:15:10;95205.88;;;33.28;39.74
19761;BME280;10039;42.632;23.408;2023-07-13T08:17:38;95204.59;;;33.29;40.51
19761;BME280;10039;42.632;23.408;2023-07-13T08:20:07;95188.69;;;33.37;39.74
19761;BME280;10039;42.632;23.408;2023-07-13T08:22:33;95193.28;;;33.12;39.78
19761;BME280;10039;42.632;23.408;2023-07-13T08:24:59;95191.50;;;33.22;40.06
19761;BME280;10039;42.632;23.408;2023-07-13T08:27:25;95192.19;;;33.60;39.62
19761;BME280;10039;42.632;23.408;2023-07-13T08:29:52;95179.25;;;32.88;40.60
19761;BME280;10039;42.632;23.408;2023-07-13T08:32:19;95185.03;;;33.27;39.67
19761;BME280;10039;42.632;23.408;2023-07-13T08:34:44;95172.34;;;32.51;40.94
19761;BME280;10039;42.632;23.408;2023-07-13T08:37:10;95175.75;;;32.95;40.88
19761;BME280;10039;42.632;23.408;2023-07-13T08:39:35;95173.56;;;33.38;39.15
19761;BME280;10039;42.632;23.408;2023-07-13T08:42:06;95175.97;;;33.49;39.16
19761;BME280;10039;42.632;23.408;2023-07-13T08:47:21;95175.59;;;34.29;37.67
19761;BME280;10039;42.632;23.408;2023-07-13T08:49:48;95167.66;;;34.65;37.09
19761;BME280;10039;42.632;23.408;2023-07-13T08:54:50;95165.91;;;35.01;36.56
19761;BME280;10039;42.632;23.408;2023-07-13T08:57:23;95181.41;;;34.87;35.71
19761;BME280;10039;42.632;23.408;2023-07-13T08:59:50;95174.19;;;34.84;37.25
19761;BME280;10039;42.632;23.408;2023-07-13T09:04:49;95182.06;;;34.71;37.12
19761;BME280;10039;42.632;23.408;2023-07-13T09:10:09;95187.09;;;34.65;37.46
19761;BME280;10039;42.632;23.408;2023-07-13T09:12:49;95206.97;;;35.10;36.63
19761;BME280;10039;42.632;23.408;2023-07-13T09:15:30;95208.84;;;35.32;34.62
19761;BME280;10039;42.632;23.408;2023-07-13T09:18:07;95221.63;;;35.03;35.22
19761;BME280;10039;42.632;23.408;2023-07-13T09:20:46;95208.53;;;34.64;37.52
19761;BME280;10039;42.632;23.408;2023-07-13T09:23:19;95213.19;;;34.94;36.85
19761;BME280;10039;42.632;23.408;2023-07-13T09:25:48;95196.84;;;35.30;36.31
19761;BME280;10039;42.632;23.408;2023-07-13T09:28:25;95206.81;;;35.33;36.60
19761;BME280;10039;42.632;23.408;2023-07-13T09:31:00;95187.59;;;35.27;36.57
19761;BME280;10039;42.632;23.408;2023-07-13T09:33:26;95201.59;;;35.78;35.83
19761;BME280;10039;42.632;23.408;2023-07-13T09:35:55;95198.31;;;35.72;36.47
19761;BME280;10039;42.632;23.408;2023-07-13T09:38:24;95205.72;;;36.11;36.01
19761;BME280;10039;42.632;23.408;2023-07-13T09:41:05;95209.47;;;36.23;34.39
19761;BME280;10039;42.632;23.408;2023-07-13T09:43:38;95200.56;;;36.07;35.87
19761;BME280;10039;42.632;23.408;2023-07-13T09:46:04;95201.97;;;36.16;37.03
19761;BME280;10039;42.632;23.408;2023-07-13T09:48:36;95180.94;;;36.66;35.71
19761;BME280;10039;42.632;23.408;2023-07-13T09:51:14;95190.28;;;36.87;34.98
19761;BME280;10039;42.632;23.408;2023-07-13T09:53:42;95182.63;;;36.18;35.79
19761;BME280;10039;42.632;23.408;2023-07-13T09:56:26;95176.16;;;36.49;35.67
19761;BME280;10039;42.632;23.408;2023-07-13T09:58:52;95167.41;;;36.89;35.89
19761;BME280;10039;42.632;23.408;2023-07-13T10:01:40;95163.72;;;36.77;35.34
19761;BME280;10039;42.632;23.408;2023-07-13T10:04:17;95152.94;;;37.26;34.04
19761;BME280;10039;42.632;23.408;2023-07-13T10:06:44;95158.53;;;37.35;33.97
19761;BME280;10039;42.632;23.408;2023-07-13T10:09:14;95139.66;;;37.43;33.21
19761;BME280;10039;42.632;23.408;2023-07-13T10:11:40;95153.63;;;37.62;33.04
19761;BME280;10039;42.632;23.408;2023-07-13T10:14:12;95138.22;;;37.61;33.21
19761;BME280;10039;42.632;23.408;2023-07-13T10:16:41;95135.56;;;37.82;32.68
19761;BME280;10039;42.632;23.408;2023-07-13T10:19:27;95150.91;;;37.36;33.08
19761;BME280;10039;42.632;23.408;2023-07-13T10:24:46;95144.28;;;38.05;32.30
19761;BME280;10039;42.632;23.408;2023-07-13T10:27:20;95137.53;;;38.27;32.98
19761;BME280;10039;42.632;23.408;2023-07-13T10:30:14;95131.09;;;38.74;32.44
19761;BME280;10039;42.632;23.408;2023-07-13T10:32:40;95128.03;;;39.19;31.39
19761;BME280;10039;42.632;23.408;2023-07-13T10:35:10;95128.94;;;39.12;31.54
19761;BME280;10039;42.632;23.408;2023-07-13T10:38:03;95130.16;;;38.22;31.45
19761;BME280;10039;42.632;23.408;2023-07-13T10:40:39;95123.63;;;38.57;31.80
19761;BME280;10039;42.632;23.408;2023-07-13T10:43:14;95119.78;;;38.81;31.02
19761;BME280;10039;42.632;23.408;2023-07-13T10:45:45;95095.22;;;38.80;31.31
19761;BME280;10039;42.632;23.408;2023-07-13T10:48:15;95114.91;;;38.82;31.98
19761;BME280;10039;42.632;23.408;2023-07-13T10:50:44;95114.28;;;38.43;31.42
19761;BME280;10039;42.632;23.408;2023-07-13T10:53:33;95102.63;;;38.56;30.65
19761;BME280;10039;42.632;23.408;2023-07-13T10:56:05;95101.97;;;38.37;31.80
19761;BME280;10039;42.632;23.408;2023-07-13T10:58:41;95071.00;;;38.63;30.97
19761;BME280;10039;42.632;23.408;2023-07-13T11:01:18;95086.56;;;38.66;32.68
19761;BME280;10039;42.632;23.408;2023-07-13T11:06:16;95067.47;;;39.03;32.35
19761;BME280;10039;42.632;23.408;2023-07-13T11:18:48;95066.31;;;39.47;30.06
19761;BME280;10039;42.632;23.408;2023-07-13T11:21:22;95057.81;;;39.66;30.75
19761;BME280;10039;42.632;23.408;2023-07-13T11:24:03;95036.38;;;39.59;29.82
19761;BME280;10039;42.632;23.408;2023-07-13T11:31:43;95051.97;;;39.62;29.45
19761;BME280;10039;42.632;23.408;2023-07-13T11:34:18;95049.00;;;39.40;29.66
19761;BME280;10039;42.632;23.408;2023-07-13T11:36:47;95033.03;;;39.51;29.33
19761;BME280;10039;42.632;23.408;2023-07-13T11:41:50;95036.25;;;38.85;29.15
19761;BME280;10039;42.632;23.408;2023-07-13T11:44:19;95045.22;;;39.14;29.53
19761;BME280;10039;42.632;23.408;2023-07-13T11:46:55;95041.16;;;39.27;29.71
19761;BME280;10039;42.632;23.408;2023-07-13T11:49:23;95040.56;;;39.49;28.99
19761;BME280;10039;42.632;23.408;2023-07-13T11:51:50;95035.53;;;39.89;28.54
19761;BME280;10039;42.632;23.408;2023-07-13T11:54:23;95040.81;;;40.06;28.26
19761;BME280;10039;42.632;23.408;2023-07-13T11:56:49;95031.66;;;40.50;28.46
19761;BME280;10039;42.632;23.408;2023-07-13T11:59:15;95020.66;;;40.19;28.81
19761;BME280;10039;42.632;23.408;2023-07-13T12:01:46;95039.09;;;40.01;28.14
19761;BME280;10039;42.632;23.408;2023-07-13T12:04:24;95025.28;;;40.15;28.70
19761;BME280;10039;42.632;23.408;2023-07-13T12:07:15;95012.75;;;40.27;27.65
19761;BME280;10039;42.632;23.408;2023-07-13T12:09:41;95003.56;;;39.18;28.31
19761;BME280;10039;42.632;23.408;2023-07-13T12:12:17;95010.72;;;39.63;28.80
19761;BME280;10039;42.632;23.408;2023-07-13T12:14:43;95015.19;;;39.89;28.52
19761;BME280;10039;42.632;23.408;2023-07-13T12:17:15;95015.31;;;40.23;28.31
19761;BME280;10039;42.632;23.408;2023-07-13T12:19:41;95014.81;;;40.15;27.44
19761;BME280;10039;42.632;23.408;2023-07-13T12:22:11;95011.13;;;39.27;27.38
19761;BME280;10039;42.632;23.408;2023-07-13T12:24:37;94992.94;;;38.75;28.88
19761;BME280;10039;42.632;23.408;2023-07-13T12:27:05;94982.53;;;39.17;28.42
19761;BME280;10039;42.632;23.408;2023-07-13T12:29:32;94987.03;;;39.96;28.46
19761;BME280;10039;42.632;23.408;2023-07-13T12:31:59;94979.06;;;40.48;27.39
19761;BME280;10039;42.632;23.408;2023-07-13T12:34:26;94974.09;;;40.47;27.47
19761;BME280;10039;42.632;23.408;2023-07-13T12:36:58;94986.13;;;40.38;27.71
19761;BME280;10039;42.632;23.408;2023-07-13T12:39:44;94977.41;;;39.99;28.11
19761;BME280;10039;42.632;23.408;2023-07-13T12:42:28;94950.75;;;39.54;27.67
19761;BME280;10039;42.632;23.408;2023-07-13T12:45:19;94975.94;;;39.54;27.55
19761;BME280;10039;42.632;23.408;2023-07-13T12:47:48;94966.25;;;39.78;27.39
19761;BME280;10039;42.632;23.408;2023-07-13T12:50:18;94955.97;;;39.92;26.67
19761;BME280;10039;42.632;23.408;2023-07-13T12:52:44;94960.88;;;40.03;26.86
19761;BME280;10039;42.632;23.408;2023-07-13T12:55:18;94954.97;;;40.43;26.73
19761;BME280;10039;42.632;23.408;2023-07-13T12:57:54;94949.34;;;40.20;26.88
19761;BME280;10039;42.632;23.408;2023-07-13T13:02:50;94937.66;;;40.69;27.62
19761;BME280;10039;42.632;23.408;2023-07-13T13:05:16;94951.25;;;40.98;27.21
19761;BME280;10039;42.632;23.408;2023-07-13T13:07:42;94948.38;;;41.32;27.01
19761;BME280;10039;42.632;23.408;2023-07-13T13:10:13;94936.81;;;41.26;27.13
19761;BME280;10039;42.632;23.408;2023-07-13T13:12:40;94944.88;;;41.20;25.64
19761;BME280;10039;42.632;23.408;2023-07-13T13:15:08;94935.78;;;40.97;25.19
19761;BME280;10039;42.632;23.408;2023-07-13T13:17:34;94924.44;;;41.06;26.40
19761;BME280;10039;42.632;23.408;2023-07-13T13:20:00;94932.66;;;41.27;25.12
19761;BME280;10039;42.632;23.408;2023-07-13T13:22:25;94934.31;;;41.07;25.06
19761;BME280;10039;42.632;23.408;2023-07-13T13:24:51;94927.03;;;40.68;25.14
19761;BME280;10039;42.632;23.408;2023-07-13T13:27:17;94925.59;;;40.90;25.49
19761;BME280;10039;42.632;23.408;2023-07-13T13:29:44;94924.16;;;41.14;24.84
19761;BME280;10039;42.632;23.408;2023-07-13T13:32:14;94927.88;;;40.93;25.75
19761;BME280;10039;42.632;23.408;2023-07-13T13:34:40;94894.66;;;40.65;25.56